Terminal Aerodrome Forecast
Issued by NWS

Home | Current Version | Previous Version | Text Only | Print | Product List | Glossary On
Versions: 1 2 3 4 5 6 7 8 9 10 11 12 13 14 15 16 17 18
000
FTUS46 KHNX 272332
TAFBFL
TAF
KBFL 272332Z 2800/2824 32006KT P6SM SCT035 BKN070
      TEMPO 2802/2806 BKN070
     FM280600 34004KT P6SM BKN050
     FM281000 VRB03KT 5SM BR BKN035
     FM282000 30006KT 5SM HZ SCT050 BKN200=

USA.gov is the U.S. government's official web portal to all federal, state and local government web resources and services.